sensor_id;sensor_type;location;lat;lon;timestamp;P1;durP1;ratioP1;P2;durP2;ratioP2
64957;SDS011;51486;50.232;19.208;2023-11-21T00:01:10;9.97;;;5.40;;
64957;SDS011;51486;50.232;19.208;2023-11-21T00:03:35;9.07;;;4.87;;
64957;SDS011;51486;50.232;19.208;2023-11-21T00:06:01;9.20;;;4.93;;
64957;SDS011;51486;50.232;19.208;2023-11-21T00:08:27;7.50;;;4.13;;
64957;SDS011;51486;50.232;19.208;2023-11-21T00:10:53;8.63;;;4.77;;
64957;SDS011;51486;50.232;19.208;2023-11-21T00:13:19;8.90;;;4.23;;
64957;SDS011;51486;50.232;19.208;2023-11-21T00:15:45;9.83;;;5.07;;
64957;SDS011;51486;50.232;19.208;2023-11-21T00:18:10;11.67;;;4.87;;
64957;SDS011;51486;50.232;19.208;2023-11-21T00:20:36;9.83;;;4.47;;
64957;SDS011;51486;50.232;19.208;2023-11-21T00:23:01;7.30;;;4.00;;
64957;SDS011;51486;50.232;19.208;2023-11-21T00:25:27;10.80;;;4.37;;
64957;SDS011;51486;50.232;19.208;2023-11-21T00:27:52;7.50;;;4.00;;
64957;SDS011;51486;50.232;19.208;2023-11-21T00:30:19;9.93;;;4.70;;
64957;SDS011;51486;50.232;19.208;2023-11-21T00:32:45;8.60;;;3.90;;
64957;SDS011;51486;50.232;19.208;2023-11-21T00:35:10;9.57;;;3.83;;
64957;SDS011;51486;50.232;19.208;2023-11-21T00:37:36;5.97;;;3.53;;
64957;SDS011;51486;50.232;19.208;2023-11-21T00:40:01;6.03;;;3.17;;
64957;SDS011;51486;50.232;19.208;2023-11-21T00:42:30;6.23;;;3.40;;
64957;SDS011;51486;50.232;19.208;2023-11-21T00:44:58;7.73;;;3.23;;
64957;SDS011;51486;50.232;19.208;2023-11-21T00:47:24;5.70;;;3.10;;
64957;SDS011;51486;50.232;19.208;2023-11-21T00:49:49;9.60;;;3.13;;
64957;SDS011;51486;50.232;19.208;2023-11-21T00:52:15;7.37;;;3.83;;
64957;SDS011;51486;50.232;19.208;2023-11-21T00:54:41;8.63;;;3.43;;
64957;SDS011;51486;50.232;19.208;2023-11-21T00:57:06;7.37;;;3.50;;
64957;SDS011;51486;50.232;19.208;2023-11-21T00:59:33;6.70;;;3.70;;
64957;SDS011;51486;50.232;19.208;2023-11-21T01:01:59;9.47;;;3.57;;
64957;SDS011;51486;50.232;19.208;2023-11-21T01:04:26;8.90;;;4.37;;
64957;SDS011;51486;50.232;19.208;2023-11-21T01:06:51;11.37;;;4.53;;
64957;SDS011;51486;50.232;19.208;2023-11-21T01:09:17;10.03;;;4.80;;
64957;SDS011;51486;50.232;19.208;2023-11-21T01:11:43;9.33;;;4.50;;
64957;SDS011;51486;50.232;19.208;2023-11-21T01:14:09;12.00;;;5.10;;
64957;SDS011;51486;50.232;19.208;2023-11-21T01:16:35;10.47;;;5.50;;
64957;SDS011;51486;50.232;19.208;2023-11-21T01:19:01;9.93;;;5.03;;
64957;SDS011;51486;50.232;19.208;2023-11-21T01:21:27;9.80;;;4.73;;
64957;SDS011;51486;50.232;19.208;2023-11-21T01:23:53;8.03;;;4.43;;
64957;SDS011;51486;50.232;19.208;2023-11-21T01:26:20;8.50;;;4.20;;
64957;SDS011;51486;50.232;19.208;2023-11-21T01:28:45;8.43;;;4.73;;
64957;SDS011;51486;50.232;19.208;2023-11-21T01:31:14;7.67;;;5.00;;
64957;SDS011;51486;50.232;19.208;2023-11-21T01:33:42;14.43;;;5.10;;
64957;SDS011;51486;50.232;19.208;2023-11-21T01:36:08;9.77;;;5.23;;
64957;SDS011;51486;50.232;19.208;2023-11-21T01:38:33;12.83;;;4.80;;
64957;SDS011;51486;50.232;19.208;2023-11-21T01:40:59;9.77;;;4.13;;
64957;SDS011;51486;50.232;19.208;2023-11-21T01:43:26;9.70;;;5.00;;
64957;SDS011;51486;50.232;19.208;2023-11-21T01:45:52;8.27;;;4.03;;
64957;SDS011;51486;50.232;19.208;2023-11-21T01:48:21;9.53;;;4.80;;
64957;SDS011;51486;50.232;19.208;2023-11-21T01:50:47;6.67;;;3.80;;
64957;SDS011;51486;50.232;19.208;2023-11-21T01:53:13;10.07;;;4.23;;
64957;SDS011;51486;50.232;19.208;2023-11-21T01:55:40;10.10;;;4.17;;
64957;SDS011;51486;50.232;19.208;2023-11-21T01:58:07;10.00;;;4.57;;
64957;SDS011;51486;50.232;19.208;2023-11-21T02:00:32;4.37;;;3.17;;
64957;SDS011;51486;50.232;19.208;2023-11-21T02:02:58;8.83;;;3.73;;
64957;SDS011;51486;50.232;19.208;2023-11-21T02:05:24;7.17;;;3.47;;
64957;SDS011;51486;50.232;19.208;2023-11-21T02:07:50;6.17;;;2.83;;
64957;SDS011;51486;50.232;19.208;2023-11-21T02:10:17;5.70;;;2.90;;
64957;SDS011;51486;50.232;19.208;2023-11-21T02:12:47;6.20;;;2.97;;
64957;SDS011;51486;50.232;19.208;2023-11-21T02:15:13;4.63;;;2.60;;
64957;SDS011;51486;50.232;19.208;2023-11-21T02:17:43;6.20;;;3.40;;
64957;SDS011;51486;50.232;19.208;2023-11-21T02:20:28;7.47;;;3.13;;
64957;SDS011;51486;50.232;19.208;2023-11-21T02:22:55;8.93;;;3.40;;
64957;SDS011;51486;50.232;19.208;2023-11-21T02:25:28;8.93;;;3.93;;
64957;SDS011;51486;50.232;19.208;2023-11-21T02:27:57;8.07;;;3.27;;
64957;SDS011;51486;50.232;19.208;2023-11-21T02:30:23;3.40;;;2.23;;
64957;SDS011;51486;50.232;19.208;2023-11-21T02:32:57;5.43;;;3.20;;
64957;SDS011;51486;50.232;19.208;2023-11-21T02:35:22;11.30;;;3.77;;
64957;SDS011;51486;50.232;19.208;2023-11-21T02:37:48;9.30;;;3.67;;
64957;SDS011;51486;50.232;19.208;2023-11-21T02:40:14;4.00;;;2.70;;
64957;SDS011;51486;50.232;19.208;2023-11-21T02:42:43;8.13;;;3.40;;
64957;SDS011;51486;50.232;19.208;2023-11-21T02:45:09;5.07;;;3.10;;
64957;SDS011;51486;50.232;19.208;2023-11-21T02:47:38;5.37;;;2.87;;
64957;SDS011;51486;50.232;19.208;2023-11-21T02:50:04;5.43;;;3.00;;
64957;SDS011;51486;50.232;19.208;2023-11-21T02:52:32;5.77;;;3.10;;
64957;SDS011;51486;50.232;19.208;2023-11-21T02:54:58;4.43;;;2.53;;
64957;SDS011;51486;50.232;19.208;2023-11-21T02:57:23;5.33;;;3.40;;
64957;SDS011;51486;50.232;19.208;2023-11-21T02:59:49;5.67;;;2.73;;
64957;SDS011;51486;50.232;19.208;2023-11-21T03:02:15;5.67;;;2.67;;
64957;SDS011;51486;50.232;19.208;2023-11-21T03:04:41;9.00;;;3.37;;
64957;SDS011;51486;50.232;19.208;2023-11-21T03:07:07;5.80;;;3.43;;
64957;SDS011;51486;50.232;19.208;2023-11-21T03:09:33;5.73;;;2.70;;
64957;SDS011;51486;50.232;19.208;2023-11-21T03:11:59;7.03;;;3.60;;
64957;SDS011;51486;50.232;19.208;2023-11-21T03:14:24;6.53;;;3.40;;
64957;SDS011;51486;50.232;19.208;2023-11-21T03:16:49;8.00;;;3.57;;
64957;SDS011;51486;50.232;19.208;2023-11-21T03:19:15;13.27;;;3.90;;
64957;SDS011;51486;50.232;19.208;2023-11-21T03:21:40;12.83;;;4.37;;
64957;SDS011;51486;50.232;19.208;2023-11-21T03:24:06;8.07;;;4.37;;
64957;SDS011;51486;50.232;19.208;2023-11-21T03:26:32;8.43;;;3.77;;
64957;SDS011;51486;50.232;19.208;2023-11-21T03:28:58;10.57;;;3.87;;
64957;SDS011;51486;50.232;19.208;2023-11-21T03:31:23;6.87;;;4.10;;
64957;SDS011;51486;50.232;19.208;2023-11-21T03:33:48;14.17;;;4.27;;
64957;SDS011;51486;50.232;19.208;2023-11-21T03:36:14;5.97;;;3.23;;
64957;SDS011;51486;50.232;19.208;2023-11-21T03:38:43;7.13;;;3.50;;
64957;SDS011;51486;50.232;19.208;2023-11-21T03:41:08;7.30;;;3.60;;
64957;SDS011;51486;50.232;19.208;2023-11-21T03:43:36;7.67;;;4.20;;
64957;SDS011;51486;50.232;19.208;2023-11-21T03:46:02;6.70;;;3.83;;
64957;SDS011;51486;50.232;19.208;2023-11-21T03:48:28;8.70;;;3.83;;
64957;SDS011;51486;50.232;19.208;2023-11-21T03:50:54;9.33;;;3.47;;
64957;SDS011;51486;50.232;19.208;2023-11-21T03:53:19;6.97;;;3.63;;
64957;SDS011;51486;50.232;19.208;2023-11-21T03:55:45;9.13;;;4.30;;
64957;SDS011;51486;50.232;19.208;2023-11-21T03:58:10;9.73;;;4.37;;
64957;SDS011;51486;50.232;19.208;2023-11-21T04:00:36;10.17;;;4.50;;
64957;SDS011;51486;50.232;19.208;2023-11-21T04:03:01;10.30;;;3.93;;
64957;SDS011;51486;50.232;19.208;2023-11-21T04:05:26;6.77;;;3.87;;
64957;SDS011;51486;50.232;19.208;2023-11-21T04:07:52;7.90;;;3.83;;
64957;SDS011;51486;50.232;19.208;2023-11-21T04:10:18;8.47;;;4.03;;
64957;SDS011;51486;50.232;19.208;2023-11-21T04:12:43;6.37;;;3.43;;
64957;SDS011;51486;50.232;19.208;2023-11-21T04:15:10;9.73;;;3.80;;
64957;SDS011;51486;50.232;19.208;2023-11-21T04:17:36;11.47;;;4.83;;
64957;SDS011;51486;50.232;19.208;2023-11-21T04:20:02;12.77;;;4.87;;
64957;SDS011;51486;50.232;19.208;2023-11-21T04:22:33;8.03;;;3.20;;
64957;SDS011;51486;50.232;19.208;2023-11-21T04:24:58;10.60;;;3.93;;
64957;SDS011;51486;50.232;19.208;2023-11-21T04:27:23;10.83;;;3.17;;
64957;SDS011;51486;50.232;19.208;2023-11-21T04:29:49;11.77;;;3.70;;
64957;SDS011;51486;50.232;19.208;2023-11-21T04:32:14;16.00;;;4.43;;
64957;SDS011;51486;50.232;19.208;2023-11-21T04:34:39;7.50;;;3.60;;
64957;SDS011;51486;50.232;19.208;2023-11-21T04:37:05;9.97;;;3.87;;
64957;SDS011;51486;50.232;19.208;2023-11-21T04:39:31;6.27;;;3.07;;
64957;SDS011;51486;50.232;19.208;2023-11-21T04:41:57;7.67;;;3.80;;
64957;SDS011;51486;50.232;19.208;2023-11-21T04:44:22;6.70;;;3.73;;
64957;SDS011;51486;50.232;19.208;2023-11-21T04:46:47;8.87;;;4.23;;
64957;SDS011;51486;50.232;19.208;2023-11-21T04:49:13;9.87;;;3.83;;
64957;SDS011;51486;50.232;19.208;2023-11-21T04:51:39;11.13;;;4.10;;
64957;SDS011;51486;50.232;19.208;2023-11-21T04:54:04;8.47;;;3.47;;
64957;SDS011;51486;50.232;19.208;2023-11-21T04:56:30;7.37;;;4.00;;
64957;SDS011;51486;50.232;19.208;2023-11-21T04:58:56;8.53;;;3.50;;
64957;SDS011;51486;50.232;19.208;2023-11-21T05:01:21;6.63;;;3.23;;
64957;SDS011;51486;50.232;19.208;2023-11-21T05:03:47;9.83;;;3.97;;
64957;SDS011;51486;50.232;19.208;2023-11-21T05:06:14;8.03;;;4.33;;
64957;SDS011;51486;50.232;19.208;2023-11-21T05:08:39;9.40;;;5.07;;
64957;SDS011;51486;50.232;19.208;2023-11-21T05:11:05;11.77;;;5.33;;
64957;SDS011;51486;50.232;19.208;2023-11-21T05:13:33;11.70;;;6.30;;
64957;SDS011;51486;50.232;19.208;2023-11-21T05:15:59;11.00;;;5.07;;
64957;SDS011;51486;50.232;19.208;2023-11-21T05:18:25;12.67;;;5.70;;
64957;SDS011;51486;50.232;19.208;2023-11-21T05:20:54;8.33;;;4.90;;
64957;SDS011;51486;50.232;19.208;2023-11-21T05:23:20;12.73;;;5.87;;
64957;SDS011;51486;50.232;19.208;2023-11-21T05:25:46;10.10;;;4.93;;
64957;SDS011;51486;50.232;19.208;2023-11-21T05:28:12;10.47;;;5.43;;
64957;SDS011;51486;50.232;19.208;2023-11-21T05:30:37;11.10;;;5.63;;
64957;SDS011;51486;50.232;19.208;2023-11-21T05:33:04;8.80;;;5.47;;
64957;SDS011;51486;50.232;19.208;2023-11-21T05:35:29;14.13;;;6.37;;
64957;SDS011;51486;50.232;19.208;2023-11-21T05:37:55;8.00;;;5.07;;
64957;SDS011;51486;50.232;19.208;2023-11-21T05:40:20;12.37;;;6.17;;
64957;SDS011;51486;50.232;19.208;2023-11-21T05:42:47;8.27;;;5.37;;
64957;SDS011;51486;50.232;19.208;2023-11-21T05:45:13;11.63;;;6.00;;
64957;SDS011;51486;50.232;19.208;2023-11-21T05:47:45;10.17;;;5.63;;
64957;SDS011;51486;50.232;19.208;2023-11-21T05:50:12;10.03;;;5.50;;
64957;SDS011;51486;50.232;19.208;2023-11-21T05:52:42;22.80;;;5.83;;
64957;SDS011;51486;50.232;19.208;2023-11-21T05:55:08;9.10;;;5.33;;
64957;SDS011;51486;50.232;19.208;2023-11-21T05:57:34;13.70;;;6.30;;
64957;SDS011;51486;50.232;19.208;2023-11-21T06:00:02;12.10;;;6.00;;
64957;SDS011;51486;50.232;19.208;2023-11-21T06:02:35;9.97;;;5.43;;
64957;SDS011;51486;50.232;19.208;2023-11-21T06:05:01;14.30;;;7.00;;
64957;SDS011;51486;50.232;19.208;2023-11-21T06:07:26;12.77;;;6.60;;
64957;SDS011;51486;50.232;19.208;2023-11-21T06:09:52;10.50;;;6.23;;
64957;SDS011;51486;50.232;19.208;2023-11-21T06:12:17;13.10;;;6.63;;
64957;SDS011;51486;50.232;19.208;2023-11-21T06:14:42;10.23;;;5.13;;
64957;SDS011;51486;50.232;19.208;2023-11-21T06:17:08;11.23;;;6.00;;
64957;SDS011;51486;50.232;19.208;2023-11-21T06:19:34;12.90;;;6.00;;
64957;SDS011;51486;50.232;19.208;2023-11-21T06:22:00;11.27;;;6.33;;
64957;SDS011;51486;50.232;19.208;2023-11-21T06:24:26;12.20;;;7.03;;
64957;SDS011;51486;50.232;19.208;2023-11-21T06:26:51;10.97;;;6.10;;
64957;SDS011;51486;50.232;19.208;2023-11-21T06:29:17;12.17;;;6.20;;
64957;SDS011;51486;50.232;19.208;2023-11-21T06:31:42;13.43;;;6.30;;
64957;SDS011;51486;50.232;19.208;2023-11-21T06:34:08;11.17;;;6.17;;
64957;SDS011;51486;50.232;19.208;2023-11-21T06:36:34;9.80;;;5.33;;
64957;SDS011;51486;50.232;19.208;2023-11-21T06:39:00;13.47;;;5.10;;
64957;SDS011;51486;50.232;19.208;2023-11-21T06:41:25;8.43;;;5.13;;
64957;SDS011;51486;50.232;19.208;2023-11-21T06:43:51;20.57;;;6.87;;
64957;SDS011;51486;50.232;19.208;2023-11-21T06:46:16;12.40;;;5.30;;
64957;SDS011;51486;50.232;19.208;2023-11-21T06:48:42;11.83;;;6.10;;
64957;SDS011;51486;50.232;19.208;2023-11-21T06:51:08;12.33;;;6.23;;
64957;SDS011;51486;50.232;19.208;2023-11-21T06:53:33;15.67;;;6.37;;
64957;SDS011;51486;50.232;19.208;2023-11-21T06:55:58;10.83;;;6.13;;
64957;SDS011;51486;50.232;19.208;2023-11-21T06:58:24;17.40;;;6.60;;
64957;SDS011;51486;50.232;19.208;2023-11-21T07:00:49;12.20;;;5.93;;
64957;SDS011;51486;50.232;19.208;2023-11-21T07:03:15;14.03;;;6.70;;
64957;SDS011;51486;50.232;19.208;2023-11-21T07:05:40;19.97;;;6.00;;
64957;SDS011;51486;50.232;19.208;2023-11-21T07:08:06;13.47;;;6.83;;
64957;SDS011;51486;50.232;19.208;2023-11-21T07:10:32;11.47;;;6.40;;
64957;SDS011;51486;50.232;19.208;2023-11-21T07:12:58;14.40;;;7.00;;
64957;SDS011;51486;50.232;19.208;2023-11-21T07:15:23;12.57;;;6.67;;
64957;SDS011;51486;50.232;19.208;2023-11-21T07:17:51;14.23;;;6.77;;
64957;SDS011;51486;50.232;19.208;2023-11-21T07:20:16;16.93;;;7.87;;
64957;SDS011;51486;50.232;19.208;2023-11-21T07:22:42;14.70;;;7.57;;
64957;SDS011;51486;50.232;19.208;2023-11-21T07:25:08;15.83;;;7.47;;
64957;SDS011;51486;50.232;19.208;2023-11-21T07:27:34;19.67;;;7.97;;
64957;SDS011;51486;50.232;19.208;2023-11-21T07:30:01;17.67;;;9.00;;
64957;SDS011;51486;50.232;19.208;2023-11-21T07:32:29;15.00;;;7.83;;
64957;SDS011;51486;50.232;19.208;2023-11-21T07:34:55;15.60;;;8.50;;
64957;SDS011;51486;50.232;19.208;2023-11-21T07:37:22;14.47;;;7.73;;
64957;SDS011;51486;50.232;19.208;2023-11-21T07:39:47;14.13;;;7.80;;
64957;SDS011;51486;50.232;19.208;2023-11-21T07:42:13;19.33;;;8.23;;
64957;SDS011;51486;50.232;19.208;2023-11-21T07:44:38;18.83;;;8.93;;
64957;SDS011;51486;50.232;19.208;2023-11-21T07:47:04;17.43;;;8.53;;
64957;SDS011;51486;50.232;19.208;2023-11-21T07:49:29;15.77;;;7.80;;
64957;SDS011;51486;50.232;19.208;2023-11-21T07:51:55;18.63;;;9.00;;
64957;SDS011;51486;50.232;19.208;2023-11-21T07:54:20;23.10;;;9.77;;
64957;SDS011;51486;50.232;19.208;2023-11-21T07:56:46;19.87;;;10.10;;
64957;SDS011;51486;50.232;19.208;2023-11-21T07:59:12;19.77;;;9.80;;
64957;SDS011;51486;50.232;19.208;2023-11-21T08:01:39;18.47;;;9.17;;
64957;SDS011;51486;50.232;19.208;2023-11-21T08:04:05;23.17;;;10.27;;
64957;SDS011;51486;50.232;19.208;2023-11-21T08:06:31;25.77;;;11.17;;
64957;SDS011;51486;50.232;19.208;2023-11-21T08:08:58;26.90;;;13.40;;
64957;SDS011;51486;50.232;19.208;2023-11-21T08:11:24;19.20;;;10.77;;
64957;SDS011;51486;50.232;19.208;2023-11-21T08:13:49;20.33;;;10.70;;
64957;SDS011;51486;50.232;19.208;2023-11-21T08:16:14;20.27;;;9.43;;
64957;SDS011;51486;50.232;19.208;2023-11-21T08:18:41;22.50;;;10.17;;
64957;SDS011;51486;50.232;19.208;2023-11-21T08:21:06;21.03;;;10.43;;
64957;SDS011;51486;50.232;19.208;2023-11-21T08:23:32;23.03;;;10.77;;
64957;SDS011;51486;50.232;19.208;2023-11-21T08:25:59;20.33;;;9.77;;
64957;SDS011;51486;50.232;19.208;2023-11-21T08:28:24;27.90;;;11.87;;
64957;SDS011;51486;50.232;19.208;2023-11-21T08:30:51;62.80;;;21.73;;
64957;SDS011;51486;50.232;19.208;2023-11-21T08:33:17;43.33;;;23.63;;
64957;SDS011;51486;50.232;19.208;2023-11-21T08:35:43;28.23;;;15.43;;
64957;SDS011;51486;50.232;19.208;2023-11-21T08:38:08;28.93;;;16.57;;
64957;SDS011;51486;50.232;19.208;2023-11-21T08:40:35;19.47;;;10.83;;
64957;SDS011;51486;50.232;19.208;2023-11-21T08:43:00;18.97;;;9.97;;
64957;SDS011;51486;50.232;19.208;2023-11-21T08:45:26;20.60;;;8.77;;
64957;SDS011;51486;50.232;19.208;2023-11-21T08:47:51;15.73;;;8.80;;
64957;SDS011;51486;50.232;19.208;2023-11-21T08:50:17;18.13;;;9.17;;
64957;SDS011;51486;50.232;19.208;2023-11-21T08:52:43;13.83;;;7.80;;
64957;SDS011;51486;50.232;19.208;2023-11-21T08:55:10;18.13;;;8.60;;
64957;SDS011;51486;50.232;19.208;2023-11-21T08:57:37;21.50;;;8.43;;
64957;SDS011;51486;50.232;19.208;2023-11-21T09:00:04;18.77;;;9.00;;
64957;SDS011;51486;50.232;19.208;2023-11-21T09:02:35;14.07;;;7.33;;
64957;SDS011;51486;50.232;19.208;2023-11-21T09:05:01;18.10;;;9.27;;
64957;SDS011;51486;50.232;19.208;2023-11-21T09:07:28;23.30;;;11.07;;
64957;SDS011;51486;50.232;19.208;2023-11-21T09:09:54;22.90;;;11.77;;
64957;SDS011;51486;50.232;19.208;2023-11-21T09:12:20;29.60;;;14.37;;
64957;SDS011;51486;50.232;19.208;2023-11-21T09:14:45;24.67;;;11.37;;
64957;SDS011;51486;50.232;19.208;2023-11-21T09:17:11;23.40;;;11.13;;
64957;SDS011;51486;50.232;19.208;2023-11-21T09:19:37;25.00;;;10.70;;
64957;SDS011;51486;50.232;19.208;2023-11-21T09:22:03;20.60;;;8.53;;
64957;SDS011;51486;50.232;19.208;2023-11-21T09:24:30;12.30;;;7.23;;
64957;SDS011;51486;50.232;19.208;2023-11-21T09:26:56;21.70;;;8.37;;
64957;SDS011;51486;50.232;19.208;2023-11-21T09:29:22;14.80;;;7.67;;
64957;SDS011;51486;50.232;19.208;2023-11-21T09:31:48;16.37;;;7.80;;
64957;SDS011;51486;50.232;19.208;2023-11-21T09:34:16;14.23;;;7.30;;
64957;SDS011;51486;50.232;19.208;2023-11-21T09:36:41;20.40;;;9.30;;
64957;SDS011;51486;50.232;19.208;2023-11-21T09:39:10;18.53;;;8.33;;
64957;SDS011;51486;50.232;19.208;2023-11-21T09:41:46;18.77;;;8.90;;
64957;SDS011;51486;50.232;19.208;2023-11-21T09:44:17;20.87;;;9.00;;
64957;SDS011;51486;50.232;19.208;2023-11-21T09:46:43;17.50;;;8.53;;
64957;SDS011;51486;50.232;19.208;2023-11-21T09:49:13;21.57;;;9.60;;
64957;SDS011;51486;50.232;19.208;2023-11-21T09:51:39;19.83;;;10.13;;
64957;SDS011;51486;50.232;19.208;2023-11-21T09:54:08;18.47;;;8.63;;
64957;SDS011;51486;50.232;19.208;2023-11-21T09:56:37;18.50;;;8.67;;
64957;SDS011;51486;50.232;19.208;2023-11-21T09:59:03;14.57;;;8.50;;
64957;SDS011;51486;50.232;19.208;2023-11-21T10:01:32;20.20;;;9.90;;
64957;SDS011;51486;50.232;19.208;2023-11-21T10:03:58;14.13;;;6.40;;
64957;SDS011;51486;50.232;19.208;2023-11-21T10:06:24;14.77;;;6.87;;
64957;SDS011;51486;50.232;19.208;2023-11-21T10:08:52;14.07;;;7.00;;
64957;SDS011;51486;50.232;19.208;2023-11-21T10:11:21;17.53;;;7.30;;
64957;SDS011;51486;50.232;19.208;2023-11-21T10:13:50;14.93;;;6.73;;
64957;SDS011;51486;50.232;19.208;2023-11-21T10:16:19;13.73;;;6.93;;
64957;SDS011;51486;50.232;19.208;2023-11-21T10:18:51;12.17;;;6.20;;
64957;SDS011;51486;50.232;19.208;2023-11-21T10:21:20;13.70;;;6.53;;
64957;SDS011;51486;50.232;19.208;2023-11-21T10:23:46;17.00;;;6.57;;
64957;SDS011;51486;50.232;19.208;2023-11-21T10:26:12;12.43;;;6.07;;
64957;SDS011;51486;50.232;19.208;2023-11-21T10:28:54;12.37;;;6.83;;
64957;SDS011;51486;50.232;19.208;2023-11-21T10:31:21;12.30;;;5.43;;
64957;SDS011;51486;50.232;19.208;2023-11-21T10:33:49;10.97;;;5.57;;
64957;SDS011;51486;50.232;19.208;2023-11-21T10:36:20;10.20;;;5.07;;
64957;SDS011;51486;50.232;19.208;2023-11-21T10:38:51;13.10;;;5.03;;
64957;SDS011;51486;50.232;19.208;2023-11-21T10:41:18;12.30;;;4.70;;
64957;SDS011;51486;50.232;19.208;2023-11-21T10:43:43;7.37;;;3.83;;
64957;SDS011;51486;50.232;19.208;2023-11-21T10:46:09;7.57;;;4.33;;
64957;SDS011;51486;50.232;19.208;2023-11-21T10:48:35;7.03;;;3.53;;
64957;SDS011;51486;50.232;19.208;2023-11-21T10:51:01;9.53;;;3.90;;
64957;SDS011;51486;50.232;19.208;2023-11-21T10:53:32;6.30;;;3.50;;
64957;SDS011;51486;50.232;19.208;2023-11-21T10:56:05;7.07;;;4.10;;
64957;SDS011;51486;50.232;19.208;2023-11-21T10:58:33;8.30;;;3.50;;
64957;SDS011;51486;50.232;19.208;2023-11-21T11:01:01;7.10;;;3.67;;
64957;SDS011;51486;50.232;19.208;2023-11-21T11:03:29;9.40;;;3.73;;
64957;SDS011;51486;50.232;19.208;2023-11-21T11:05:55;9.47;;;3.70;;
64957;SDS011;51486;50.232;19.208;2023-11-21T11:08:20;7.03;;;3.73;;
64957;SDS011;51486;50.232;19.208;2023-11-21T11:10:51;6.10;;;3.60;;
64957;SDS011;51486;50.232;19.208;2023-11-21T11:13:17;10.77;;;4.67;;
64957;SDS011;51486;50.232;19.208;2023-11-21T11:15:43;13.80;;;4.47;;
64957;SDS011;51486;50.232;19.208;2023-11-21T11:18:12;8.70;;;4.70;;
64957;SDS011;51486;50.232;19.208;2023-11-21T11:20:38;7.93;;;5.23;;
64957;SDS011;51486;50.232;19.208;2023-11-21T11:28:22;9.87;;;4.87;;
64957;SDS011;51486;50.232;19.208;2023-11-21T11:31:00;7.33;;;3.97;;
64957;SDS011;51486;50.232;19.208;2023-11-21T11:33:41;5.33;;;3.50;;
64957;SDS011;51486;50.232;19.208;2023-11-21T11:36:16;5.83;;;2.70;;
64957;SDS011;51486;50.232;19.208;2023-11-21T11:38:47;8.23;;;3.57;;
64957;SDS011;51486;50.232;19.208;2023-11-21T11:41:23;6.27;;;3.77;;
64957;SDS011;51486;50.232;19.208;2023-11-21T11:43:50;3.70;;;2.63;;
64957;SDS011;51486;50.232;19.208;2023-11-21T11:46:16;7.57;;;4.07;;
64957;SDS011;51486;50.232;19.208;2023-11-21T11:48:41;7.57;;;3.73;;
64957;SDS011;51486;50.232;19.208;2023-11-21T11:51:10;10.33;;;4.50;;
64957;SDS011;51486;50.232;19.208;2023-11-21T11:53:39;7.53;;;4.10;;
64957;SDS011;51486;50.232;19.208;2023-11-21T11:56:25;8.07;;;4.53;;
64957;SDS011;51486;50.232;19.208;2023-11-21T11:59:01;8.40;;;5.37;;
64957;SDS011;51486;50.232;19.208;2023-11-21T12:01:28;8.97;;;5.10;;
64957;SDS011;51486;50.232;19.208;2023-11-21T12:06:39;12.03;;;5.67;;
64957;SDS011;51486;50.232;19.208;2023-11-21T12:09:06;12.67;;;7.07;;
64957;SDS011;51486;50.232;19.208;2023-11-21T12:11:31;8.90;;;5.83;;
64957;SDS011;51486;50.232;19.208;2023-11-21T12:13:58;13.93;;;6.63;;
64957;SDS011;51486;50.232;19.208;2023-11-21T12:16:25;13.83;;;6.43;;
64957;SDS011;51486;50.232;19.208;2023-11-21T12:18:52;16.27;;;6.43;;
64957;SDS011;51486;50.232;19.208;2023-11-21T12:21:19;11.40;;;5.30;;
64957;SDS011;51486;50.232;19.208;2023-11-21T12:23:45;15.77;;;6.23;;
64957;SDS011;51486;50.232;19.208;2023-11-21T12:26:12;10.40;;;5.87;;
64957;SDS011;51486;50.232;19.208;2023-11-21T12:28:38;11.37;;;5.93;;
64957;SDS011;51486;50.232;19.208;2023-11-21T12:31:04;9.03;;;4.77;;
64957;SDS011;51486;50.232;19.208;2023-11-21T12:33:32;5.80;;;3.70;;
64957;SDS011;51486;50.232;19.208;2023-11-21T12:36:00;2.67;;;1.97;;
64957;SDS011;51486;50.232;19.208;2023-11-21T12:38:33;4.77;;;2.53;;
64957;SDS011;51486;50.232;19.208;2023-11-21T12:40:59;7.37;;;2.30;;
64957;SDS011;51486;50.232;19.208;2023-11-21T12:43:25;4.27;;;2.07;;
64957;SDS011;51486;50.232;19.208;2023-11-21T12:45:50;4.83;;;2.00;;
64957;SDS011;51486;50.232;19.208;2023-11-21T12:48:17;2.20;;;1.47;;
64957;SDS011;51486;50.232;19.208;2023-11-21T12:50:49;3.80;;;2.07;;
64957;SDS011;51486;50.232;19.208;2023-11-21T12:53:18;3.77;;;2.10;;
64957;SDS011;51486;50.232;19.208;2023-11-21T12:55:43;3.07;;;1.47;;
64957;SDS011;51486;50.232;19.208;2023-11-21T12:58:14;3.23;;;1.90;;
64957;SDS011;51486;50.232;19.208;2023-11-21T13:00:42;1.70;;;1.30;;
64957;SDS011;51486;50.232;19.208;2023-11-21T13:03:11;2.50;;;1.70;;
64957;SDS011;51486;50.232;19.208;2023-11-21T13:05:40;4.70;;;1.77;;
64957;SDS011;51486;50.232;19.208;2023-11-21T13:08:14;6.20;;;2.07;;
64957;SDS011;51486;50.232;19.208;2023-11-21T13:10:44;3.10;;;1.43;;
64957;SDS011;51486;50.232;19.208;2023-11-21T13:13:12;2.67;;;1.70;;
64957;SDS011;51486;50.232;19.208;2023-11-21T13:15:52;2.57;;;1.80;;
64957;SDS011;51486;50.232;19.208;2023-11-21T13:18:26;3.00;;;2.00;;
64957;SDS011;51486;50.232;19.208;2023-11-21T13:20:55;3.40;;;1.90;;
64957;SDS011;51486;50.232;19.208;2023-11-21T13:23:21;2.53;;;1.63;;
64957;SDS011;51486;50.232;19.208;2023-11-21T13:25:48;2.93;;;1.63;;
64957;SDS011;51486;50.232;19.208;2023-11-21T13:28:14;3.03;;;1.60;;
64957;SDS011;51486;50.232;19.208;2023-11-21T13:30:45;4.73;;;2.37;;
64957;SDS011;51486;50.232;19.208;2023-11-21T13:33:11;3.00;;;1.70;;
64957;SDS011;51486;50.232;19.208;2023-11-21T13:35:43;3.97;;;2.13;;
64957;SDS011;51486;50.232;19.208;2023-11-21T13:38:16;3.57;;;2.30;;
64957;SDS011;51486;50.232;19.208;2023-11-21T13:40:47;3.80;;;2.13;;
64957;SDS011;51486;50.232;19.208;2023-11-21T13:43:24;3.87;;;2.10;;
64957;SDS011;51486;50.232;19.208;2023-11-21T13:45:51;8.83;;;2.90;;
64957;SDS011;51486;50.232;19.208;2023-11-21T13:48:33;4.17;;;2.03;;
64957;SDS011;51486;50.232;19.208;2023-11-21T13:51:07;7.67;;;2.80;;
64957;SDS011;51486;50.232;19.208;2023-11-21T13:53:41;5.77;;;2.53;;
64957;SDS011;51486;50.232;19.208;2023-11-21T13:56:07;4.80;;;2.37;;
64957;SDS011;51486;50.232;19.208;2023-11-21T13:58:34;4.60;;;2.30;;
64957;SDS011;51486;50.232;19.208;2023-11-21T14:01:16;18.40;;;5.10;;
64957;SDS011;51486;50.232;19.208;2023-11-21T14:04:17;7.60;;;3.20;;
64957;SDS011;51486;50.232;19.208;2023-11-21T14:06:43;14.13;;;4.50;;
64957;SDS011;51486;50.232;19.208;2023-11-21T14:09:16;8.37;;;3.60;;
64957;SDS011;51486;50.232;19.208;2023-11-21T14:11:50;7.90;;;3.03;;
64957;SDS011;51486;50.232;19.208;2023-11-21T14:14:17;7.77;;;3.07;;
64957;SDS011;51486;50.232;19.208;2023-11-21T14:16:44;5.53;;;3.03;;
64957;SDS011;51486;50.232;19.208;2023-11-21T14:19:09;10.10;;;2.80;;
64957;SDS011;51486;50.232;19.208;2023-11-21T14:21:41;10.43;;;2.67;;
64957;SDS011;51486;50.232;19.208;2023-11-21T14:24:10;8.77;;;2.53;;
64957;SDS011;51486;50.232;19.208;2023-11-21T14:26:38;11.87;;;3.00;;
64957;SDS011;51486;50.232;19.208;2023-11-21T14:29:07;5.67;;;3.33;;
64957;SDS011;51486;50.232;19.208;2023-11-21T14:31:33;7.67;;;3.30;;
64957;SDS011;51486;50.232;19.208;2023-11-21T14:33:59;7.07;;;3.03;;
64957;SDS011;51486;50.232;19.208;2023-11-21T14:36:26;5.40;;;3.03;;